首页
METAR-TAF:

METAR-TAF

机场 :

克拉根福, 奥地利

纬度: 46-39N, 经度: 014-20E, 海拔: 448米

当前天气观测

该预报发布于34分钟前的23:50 UTC
风速3节,风向西转西北,在西转西南西北之间变化
温度 11°C
湿度 87%
气压 1019 hPa
能见度10公里或以上
少量云层高于5000英尺
多云层高于6000英尺

METAR: LOWK 312350Z AUTO 30003KT 250V320 9999 FEW050 BKN060 11/09 Q1019

时间: 02:24 (00:24 UTC)

预报

该预报发布于1小时和9分钟前的23:15 UTC
预报有效从01日的 00点(UTC)到 01日的 24点(UTC)
风速4节,风向多变
能见度10公里或以上
少量云层高于6000英尺
散云层高于9000英尺

TAF: LOWK 312315Z 0100/0124 VRB04KT 9999 FEW060 SCT090 TX22/0115Z TN09/0103Z

超过4000个机场的气象观测和天气预报(METAR&TAF报告)。

可查询的气象台以黄色和红色小点在地图上表示。

将鼠标移到小点上方,可查看气象台名称。

然后点击查看天气观测和预报。

如需切换地图:点击带黑十字的绿色按钮放大地图;点击带横线的绿色按钮缩小地图;或者点击绿色箭头查看邻近地区的地图。


METAR-TAF: